createdAt,value
2023-02-15T00:00:25.313Z,2.50
2023-02-15T00:02:51.894Z,2.50
2023-02-15T00:05:18.558Z,2.60
2023-02-15T00:07:45.243Z,2.60
2023-02-15T00:10:12.990Z,2.60
2023-02-15T00:12:39.588Z,2.60
2023-02-15T00:15:06.273Z,2.70
2023-02-15T00:17:32.950Z,2.70
2023-02-15T00:19:59.661Z,2.60
2023-02-15T00:22:26.450Z,2.60
2023-02-15T00:24:53.069Z,2.60
2023-02-15T00:27:19.626Z,2.60
2023-02-15T00:29:47.382Z,2.50
2023-02-15T00:32:13.955Z,2.40
2023-02-15T00:34:40.656Z,2.40
2023-02-15T00:37:07.229Z,2.40
2023-02-15T00:39:34.214Z,2.40
2023-02-15T00:42:00.775Z,2.40
2023-02-15T00:44:27.418Z,2.30
2023-02-15T00:46:54.064Z,2.20
2023-02-15T00:49:20.857Z,2.30
2023-02-15T00:51:47.646Z,2.20
2023-02-15T00:54:14.245Z,2.20
2023-02-15T00:56:40.818Z,2.20
2023-02-15T00:59:08.813Z,2.10
2023-02-15T01:01:35.550Z,2.10
2023-02-15T01:04:02.690Z,2.10
2023-02-15T01:06:29.294Z,2.10
2023-02-15T01:08:55.886Z,2.10
2023-02-15T01:11:23.473Z,2.10
2023-02-15T01:13:51.091Z,2.00
2023-02-15T01:16:18.228Z,2.10
2023-02-15T01:18:44.967Z,2.00
2023-02-15T01:21:12.622Z,2.00
2023-02-15T01:23:39.265Z,2.00
2023-02-15T01:26:05.911Z,1.90
2023-02-15T01:28:33.044Z,1.90
2023-02-15T01:31:00.291Z,1.80
2023-02-15T01:33:27.039Z,1.80
2023-02-15T01:36:00.000Z,1.70
2023-02-15T01:38:26.829Z,1.70
2023-02-15T01:40:53.864Z,1.70
2023-02-15T01:43:20.602Z,1.70
2023-02-15T01:45:48.742Z,1.70
2023-02-15T01:48:22.107Z,1.60
2023-02-15T01:50:51.154Z,1.60
2023-02-15T01:53:21.457Z,1.60
2023-02-15T01:55:51.431Z,1.70
2023-02-15T01:58:18.298Z,1.60
2023-02-15T02:00:45.646Z,1.60
2023-02-15T02:03:12.772Z,1.60
2023-02-15T02:05:40.437Z,1.60
2023-02-15T02:08:07.626Z,1.60
2023-02-15T02:10:34.233Z,1.50
2023-02-15T02:13:03.381Z,1.50
2023-02-15T02:15:50.212Z,1.50
2023-02-15T02:18:25.046Z,1.50
2023-02-15T02:20:57.471Z,1.50
2023-02-15T02:23:37.137Z,1.50
2023-02-15T02:26:03.860Z,1.50
2023-02-15T02:28:41.973Z,1.50
2023-02-15T02:31:08.701Z,1.50
2023-02-15T02:33:41.054Z,1.50
2023-02-15T02:36:12.008Z,1.50
2023-02-15T02:38:57.591Z,1.40
2023-02-15T02:41:37.922Z,1.40
2023-02-15T02:44:10.730Z,1.40
2023-02-15T02:47:09.930Z,1.40
2023-02-15T02:49:39.741Z,1.40
2023-02-15T02:52:26.512Z,1.40
2023-02-15T02:54:53.777Z,1.40
2023-02-15T02:57:22.617Z,1.30
2023-02-15T02:59:49.807Z,1.30
2023-02-15T03:02:22.482Z,1.30
2023-02-15T03:04:51.067Z,1.30
2023-02-15T03:07:22.848Z,1.20
2023-02-15T03:09:52.131Z,1.30
2023-02-15T03:12:22.896Z,1.20
2023-02-15T03:14:51.253Z,1.20
2023-02-15T03:17:19.526Z,1.20
2023-02-15T03:19:46.819Z,1.20
2023-02-15T03:22:20.360Z,1.10
2023-02-15T03:25:22.310Z,1.20
2023-02-15T03:27:50.984Z,1.10
2023-02-15T03:30:19.635Z,1.20
2023-02-15T03:32:48.292Z,1.10
2023-02-15T03:35:15.131Z,1.10
2023-02-15T03:37:45.049Z,1.10
2023-02-15T03:40:33.969Z,1.10
2023-02-15T03:43:23.885Z,1.10
2023-02-15T03:45:57.797Z,1.10
2023-02-15T03:48:28.390Z,1.10
2023-02-15T03:51:15.198Z,1.00
2023-02-15T03:53:42.995Z,1.10
2023-02-15T03:56:09.578Z,1.10
2023-02-15T03:58:55.142Z,1.00
2023-02-15T04:01:58.048Z,1.00
2023-02-15T04:04:26.636Z,1.00
2023-02-15T04:06:53.237Z,1.00
2023-02-15T04:09:38.509Z,1.00
2023-02-15T04:12:05.396Z,1.00
2023-02-15T04:14:50.529Z,1.00
2023-02-15T04:17:17.205Z,1.00
2023-02-15T04:20:02.491Z,1.00
2023-02-15T04:22:47.951Z,1.00
2023-02-15T04:25:14.641Z,1.00
2023-02-15T04:27:42.779Z,0.90
2023-02-15T04:30:09.843Z,0.90
2023-02-15T04:32:36.648Z,0.90
2023-02-15T04:35:03.709Z,0.90
2023-02-15T04:37:30.356Z,0.90
2023-02-15T04:39:59.316Z,0.90
2023-02-15T04:42:26.670Z,0.90
2023-02-15T04:44:53.789Z,0.90
2023-02-15T04:47:20.511Z,0.90
2023-02-15T04:49:47.179Z,0.90
2023-02-15T04:54:59.693Z,0.90
2023-02-15T04:57:26.434Z,0.90
2023-02-15T04:59:53.031Z,0.90
2023-02-15T05:02:19.862Z,0.90
2023-02-15T05:04:46.480Z,0.80
2023-02-15T05:07:13.181Z,0.80
2023-02-15T05:09:39.747Z,0.80
2023-02-15T05:12:06.439Z,0.80
2023-02-15T05:14:33.025Z,0.80
2023-02-15T05:17:02.359Z,0.80
2023-02-15T05:19:29.117Z,0.80
2023-02-15T05:21:55.738Z,0.80
2023-02-15T05:24:43.480Z,0.80
2023-02-15T05:27:32.293Z,0.80
2023-02-15T05:30:01.312Z,0.80
2023-02-15T05:32:28.242Z,0.80
2023-02-15T05:35:00.261Z,0.90
2023-02-15T05:37:27.015Z,0.90
2023-02-15T05:39:56.428Z,0.90
2023-02-15T05:42:23.261Z,0.90
2023-02-15T05:44:58.591Z,0.90
2023-02-15T05:47:26.432Z,0.90
2023-02-15T05:49:56.616Z,0.90
2023-02-15T05:52:23.388Z,0.90
2023-02-15T05:54:50.028Z,0.90
2023-02-15T05:57:16.667Z,0.80
2023-02-15T05:59:43.192Z,0.80
2023-02-15T06:02:10.060Z,0.80
2023-02-15T06:04:36.680Z,0.80
2023-02-15T06:07:03.354Z,0.80
2023-02-15T06:09:30.031Z,0.80
2023-02-15T06:11:56.956Z,0.80
2023-02-15T06:14:24.098Z,0.80
2023-02-15T06:16:50.802Z,0.80
2023-02-15T06:19:17.684Z,0.80
2023-02-15T06:21:44.532Z,0.80
2023-02-15T06:24:11.110Z,0.80
2023-02-15T06:26:37.768Z,0.80
2023-02-15T06:29:04.500Z,0.80
2023-02-15T06:31:31.260Z,0.80
2023-02-15T06:34:06.961Z,0.80
2023-02-15T06:36:33.578Z,0.80
2023-02-15T06:39:00.112Z,0.80
2023-02-15T06:41:26.829Z,0.70
2023-02-15T06:43:53.523Z,0.80
2023-02-15T06:46:20.255Z,0.70
2023-02-15T06:48:48.330Z,0.80
2023-02-15T06:51:15.279Z,0.70
2023-02-15T06:53:43.741Z,0.80
2023-02-15T06:56:11.132Z,0.70
2023-02-15T06:58:38.401Z,0.70
2023-02-15T07:01:05.799Z,0.70
2023-02-15T07:03:33.084Z,0.70
2023-02-15T07:06:01.057Z,0.80
2023-02-15T07:08:28.285Z,0.80
2023-02-15T07:10:55.598Z,0.80
2023-02-15T07:13:22.280Z,0.80
2023-02-15T07:15:49.199Z,0.90
2023-02-15T07:18:16.016Z,0.90
2023-02-15T07:20:42.762Z,0.90
2023-02-15T07:23:09.554Z,0.90
2023-02-15T07:25:36.956Z,0.90
2023-02-15T07:28:04.751Z,0.90
2023-02-15T07:30:31.592Z,1.00
2023-02-15T07:33:17.499Z,1.00
2023-02-15T07:35:48.177Z,1.10
2023-02-15T07:38:15.005Z,1.10
2023-02-15T07:40:41.667Z,1.20
2023-02-15T07:43:08.337Z,1.20
2023-02-15T07:45:35.221Z,1.30
2023-02-15T07:48:02.471Z,1.30
2023-02-15T07:50:29.172Z,1.30
2023-02-15T07:52:55.856Z,1.40
2023-02-15T07:55:25.797Z,1.40
2023-02-15T07:57:54.875Z,1.40
2023-02-15T08:00:25.993Z,1.50
2023-02-15T08:03:14.040Z,1.50
2023-02-15T08:05:44.958Z,1.60
2023-02-15T08:08:30.781Z,1.70
2023-02-15T08:11:19.324Z,1.70
2023-02-15T08:14:15.994Z,1.70
2023-02-15T08:16:45.772Z,1.80
2023-02-15T08:19:22.634Z,1.80
2023-02-15T08:21:54.404Z,1.90
2023-02-15T08:24:22.129Z,2.00
2023-02-15T08:26:49.578Z,2.10
2023-02-15T08:29:17.090Z,2.10
2023-02-15T08:31:44.303Z,2.20
2023-02-15T08:34:12.343Z,2.30
2023-02-15T08:36:41.876Z,2.30
2023-02-15T08:39:08.742Z,2.40
2023-02-15T08:41:36.984Z,2.40
2023-02-15T08:44:05.142Z,2.60
2023-02-15T08:46:33.196Z,2.70
2023-02-15T08:49:00.224Z,2.70
2023-02-15T08:51:31.568Z,2.90
2023-02-15T08:53:59.506Z,2.90
2023-02-15T08:56:27.849Z,3.10
2023-02-15T08:58:55.224Z,3.20
2023-02-15T09:01:23.146Z,3.30
2023-02-15T09:03:51.015Z,3.90
2023-02-15T09:06:17.997Z,4.50
2023-02-15T09:08:44.846Z,4.90
2023-02-15T09:11:13.017Z,5.10
2023-02-15T09:13:41.794Z,5.50
2023-02-15T09:16:09.302Z,6.10
2023-02-15T09:18:38.387Z,6.10
2023-02-15T09:21:08.592Z,6.70
2023-02-15T09:23:35.718Z,6.60
2023-02-15T09:26:04.210Z,6.80
2023-02-15T09:28:30.941Z,7.30
2023-02-15T09:30:57.731Z,7.30
2023-02-15T09:33:26.111Z,7.50
2023-02-15T09:35:52.734Z,7.90
2023-02-15T09:38:19.530Z,8.20
2023-02-15T09:40:52.005Z,7.40
2023-02-15T09:43:39.952Z,7.50
2023-02-15T09:46:19.096Z,7.60
2023-02-15T09:48:50.948Z,8.30
2023-02-15T09:51:28.355Z,8.30
2023-02-15T09:54:06.573Z,8.20
2023-02-15T09:56:38.484Z,8.60
2023-02-15T09:59:11.413Z,8.90
2023-02-15T10:01:44.945Z,9.00
2023-02-15T10:04:17.720Z,9.80
2023-02-15T10:06:50.409Z,10.60
2023-02-15T10:09:29.309Z,10.30
2023-02-15T10:12:21.763Z,9.90
2023-02-15T10:14:54.586Z,9.90
2023-02-15T10:17:24.305Z,9.60
2023-02-15T10:20:05.958Z,9.70
2023-02-15T10:22:32.569Z,10.10
2023-02-15T10:25:12.921Z,10.80
2023-02-15T10:27:50.076Z,11.20
2023-02-15T10:30:22.572Z,11.30
2023-02-15T10:32:59.993Z,11.20
2023-02-15T10:35:35.382Z,10.30
2023-02-15T10:38:05.091Z,10.10
2023-02-15T10:40:50.675Z,10.40
2023-02-15T10:43:17.442Z,10.40
2023-02-15T10:46:02.854Z,10.50
2023-02-15T10:48:29.741Z,10.30
2023-02-15T10:51:02.898Z,10.30
2023-02-15T10:56:06.309Z,11.40
2023-02-15T10:58:39.735Z,11.50
2023-02-15T11:01:09.632Z,11.00
2023-02-15T11:03:54.714Z,10.70
2023-02-15T11:06:22.233Z,10.50
2023-02-15T11:09:00.815Z,10.00
2023-02-15T11:11:36.064Z,9.90
2023-02-15T11:14:10.983Z,9.80
2023-02-15T11:16:39.029Z,10.10
2023-02-15T11:19:17.922Z,10.50
2023-02-15T11:21:46.765Z,10.80
2023-02-15T11:24:22.868Z,11.00
2023-02-15T11:27:00.443Z,11.00
2023-02-15T11:29:51.428Z,10.10
2023-02-15T11:32:30.017Z,9.90
2023-02-15T11:34:58.986Z,10.20
2023-02-15T11:37:29.564Z,10.00
2023-02-15T11:39:57.800Z,10.60
2023-02-15T11:42:26.208Z,11.20
2023-02-15T11:44:56.023Z,11.20
2023-02-15T11:47:22.636Z,10.70
2023-02-15T11:49:49.337Z,11.10
2023-02-15T11:52:17.373Z,11.10
2023-02-15T11:54:45.865Z,11.20
2023-02-15T11:57:12.483Z,11.80
2023-02-15T11:59:40.300Z,11.50
2023-02-15T12:02:16.205Z,11.20
2023-02-15T12:04:45.218Z,11.30
2023-02-15T12:07:26.569Z,11.30
2023-02-15T12:10:17.393Z,11.10
2023-02-15T12:12:44.822Z,11.50
2023-02-15T12:15:12.206Z,11.50
2023-02-15T12:17:49.326Z,11.40
2023-02-15T12:20:15.989Z,11.00
2023-02-15T12:22:52.713Z,11.20
2023-02-15T12:25:28.312Z,11.90
2023-02-15T12:27:57.622Z,11.90
2023-02-15T12:30:29.341Z,11.80
2023-02-15T12:32:58.190Z,12.00
2023-02-15T12:35:29.626Z,11.70
2023-02-15T12:37:57.913Z,12.00
2023-02-15T12:40:27.122Z,11.90
2023-02-15T12:42:53.778Z,12.00
2023-02-15T12:45:37.421Z,12.00
2023-02-15T12:48:11.299Z,12.10
2023-02-15T12:50:38.045Z,12.10
2023-02-15T12:53:23.971Z,11.80
2023-02-15T12:56:00.190Z,12.10
2023-02-15T12:58:27.679Z,12.00
2023-02-15T13:01:15.304Z,12.30
2023-02-15T13:03:59.604Z,12.10
2023-02-15T13:06:27.270Z,12.20
2023-02-15T13:08:55.801Z,12.60
2023-02-15T13:11:26.400Z,12.80
2023-02-15T13:14:01.050Z,12.70
2023-02-15T13:16:32.200Z,12.60
2023-02-15T13:19:02.912Z,12.60
2023-02-15T13:21:32.806Z,12.90
2023-02-15T13:24:09.479Z,13.50
2023-02-15T13:26:36.204Z,13.50
2023-02-15T13:29:09.610Z,13.80
2023-02-15T13:31:36.606Z,13.90
2023-02-15T13:34:10.462Z,13.90
2023-02-15T13:36:55.844Z,13.90
2023-02-15T13:39:25.559Z,13.70
2023-02-15T13:42:10.884Z,14.00
2023-02-15T13:44:43.815Z,14.30
2023-02-15T13:47:19.501Z,14.70
2023-02-15T13:49:52.011Z,15.00
2023-02-15T13:52:22.240Z,14.80
2023-02-15T13:54:59.700Z,14.80
2023-02-15T13:57:49.975Z,14.80
2023-02-15T14:00:24.892Z,14.20
2023-02-15T14:02:51.504Z,14.40
2023-02-15T14:05:30.442Z,14.60
2023-02-15T14:08:12.234Z,14.20
2023-02-15T14:10:45.651Z,14.20
2023-02-15T14:13:39.293Z,14.00
2023-02-15T14:16:28.607Z,14.10
2023-02-15T14:18:55.184Z,13.80
2023-02-15T14:21:28.017Z,13.80
2023-02-15T14:23:54.791Z,13.90
2023-02-15T14:26:32.898Z,14.10
2023-02-15T14:29:19.464Z,14.40
2023-02-15T14:31:51.646Z,14.90
2023-02-15T14:34:24.855Z,14.40
2023-02-15T14:36:52.582Z,14.00
2023-02-15T14:39:56.775Z,13.80
2023-02-15T14:42:31.352Z,13.70
2023-02-15T14:45:16.220Z,13.80
2023-02-15T14:47:45.390Z,13.60
2023-02-15T14:50:31.052Z,13.30
2023-02-15T14:53:15.718Z,13.10
2023-02-15T14:55:42.336Z,12.80
2023-02-15T14:58:13.299Z,12.60
2023-02-15T15:00:42.929Z,12.70
2023-02-15T15:03:19.315Z,12.70
2023-02-15T15:05:51.174Z,12.80
2023-02-15T15:08:28.004Z,12.70
2023-02-15T15:10:54.591Z,12.60
2023-02-15T15:13:43.276Z,12.30
2023-02-15T15:16:28.112Z,12.10
2023-02-15T15:18:55.972Z,12.00
2023-02-15T15:21:41.529Z,11.80
2023-02-15T15:24:08.388Z,11.80
2023-02-15T15:26:37.908Z,11.60
2023-02-15T15:29:04.729Z,11.60
2023-02-15T15:31:31.459Z,11.60
2023-02-15T15:34:15.996Z,11.50
2023-02-15T15:37:11.890Z,11.50
2023-02-15T15:39:44.252Z,11.60
2023-02-15T15:42:16.855Z,11.50
2023-02-15T15:45:01.976Z,11.50
2023-02-15T15:47:38.071Z,11.40
2023-02-15T15:50:22.512Z,11.40
2023-02-15T15:52:53.742Z,11.30
2023-02-15T15:55:24.136Z,11.20
2023-02-15T15:57:56.443Z,11.30
2023-02-15T16:00:42.024Z,11.30
2023-02-15T16:03:22.954Z,11.20
2023-02-15T16:05:55.079Z,11.10
2023-02-15T16:08:37.749Z,11.00
2023-02-15T16:11:33.871Z,11.00
2023-02-15T16:14:00.655Z,10.90
2023-02-15T16:16:29.258Z,10.90
2023-02-15T16:19:00.391Z,10.80
2023-02-15T16:21:29.655Z,10.80
2023-02-15T16:24:15.166Z,10.70
2023-02-15T16:26:50.819Z,10.70
2023-02-15T16:29:19.184Z,10.60
2023-02-15T16:32:02.745Z,10.60
2023-02-15T16:34:33.330Z,10.50
2023-02-15T16:37:19.876Z,10.40
2023-02-15T16:39:49.000Z,10.40
2023-02-15T16:42:16.341Z,10.30
2023-02-15T16:44:43.977Z,10.20
2023-02-15T16:47:18.726Z,10.20
2023-02-15T16:49:47.405Z,10.10
2023-02-15T16:52:16.688Z,10.10
2023-02-15T16:54:44.154Z,10.10
2023-02-15T16:57:21.538Z,10.00
2023-02-15T16:59:49.411Z,10.00
2023-02-15T17:02:37.216Z,9.90
2023-02-15T17:05:14.595Z,9.90
2023-02-15T17:07:42.702Z,9.80
2023-02-15T17:10:29.885Z,9.80
2023-02-15T17:13:01.097Z,9.80
2023-02-15T17:15:27.687Z,9.70
2023-02-15T17:17:56.309Z,9.70
2023-02-15T17:20:24.273Z,9.70
2023-02-15T17:22:50.995Z,9.60
2023-02-15T17:25:24.616Z,9.60
2023-02-15T17:27:52.855Z,9.60
2023-02-15T17:30:30.667Z,9.60
2023-02-15T17:32:59.258Z,9.60
2023-02-15T17:35:28.112Z,9.50
2023-02-15T17:38:06.264Z,9.50
2023-02-15T17:40:34.745Z,9.50
2023-02-15T17:43:01.649Z,9.40
2023-02-15T17:45:33.632Z,9.30
2023-02-15T17:48:02.502Z,9.30
2023-02-15T17:50:29.315Z,9.30
2023-02-15T17:52:56.788Z,9.30
2023-02-15T17:55:36.265Z,9.20
2023-02-15T17:58:04.644Z,9.10
2023-02-15T18:00:50.475Z,9.20
2023-02-15T18:03:36.113Z,9.10
2023-02-15T18:06:21.285Z,9.00
2023-02-15T18:09:06.595Z,9.00
2023-02-15T18:11:36.942Z,9.00
2023-02-15T18:14:07.650Z,8.90
2023-02-15T18:16:36.501Z,8.80
2023-02-15T18:19:04.887Z,8.80
2023-02-15T18:21:35.713Z,8.80
2023-02-15T18:24:02.465Z,8.70
2023-02-15T18:26:29.681Z,8.60
2023-02-15T18:28:56.325Z,8.60
2023-02-15T18:31:24.010Z,8.60
2023-02-15T18:33:52.916Z,8.50
2023-02-15T18:36:33.431Z,8.50
2023-02-15T18:39:03.776Z,8.40
2023-02-15T18:41:32.432Z,8.40
2023-02-15T18:43:59.025Z,8.40
2023-02-15T18:46:25.754Z,8.40
2023-02-15T18:48:52.378Z,8.30
2023-02-15T18:51:23.122Z,8.30
2023-02-15T18:53:53.396Z,8.30
2023-02-15T18:56:21.294Z,8.20
2023-02-15T18:58:49.162Z,8.20
2023-02-15T19:01:20.557Z,8.10
2023-02-15T19:03:48.033Z,8.10
2023-02-15T19:06:19.232Z,8.00
2023-02-15T19:08:47.151Z,8.00
2023-02-15T19:11:18.696Z,7.80
2023-02-15T19:13:47.018Z,7.80
2023-02-15T19:16:26.219Z,7.80
2023-02-15T19:18:52.999Z,7.80
2023-02-15T19:21:19.709Z,7.80
2023-02-15T19:23:48.968Z,7.70
2023-02-15T19:26:15.549Z,7.70
2023-02-15T19:28:42.099Z,7.70
2023-02-15T19:31:11.852Z,7.60
2023-02-15T19:33:38.752Z,7.60
2023-02-15T19:36:05.752Z,7.60
2023-02-15T19:38:33.274Z,7.50
2023-02-15T19:41:01.592Z,7.50
2023-02-15T19:43:30.006Z,7.50
2023-02-15T19:45:56.645Z,7.40
2023-02-15T19:48:23.250Z,7.40
2023-02-15T19:50:49.869Z,7.30
2023-02-15T19:53:19.345Z,7.30
2023-02-15T19:55:45.896Z,7.20
2023-02-15T19:58:13.813Z,7.20
2023-02-15T20:00:40.418Z,7.20
2023-02-15T20:03:06.902Z,7.20
2023-02-15T20:05:34.938Z,7.20
2023-02-15T20:08:03.883Z,7.10
2023-02-15T20:10:31.116Z,7.00
2023-02-15T20:12:57.966Z,7.00
2023-02-15T20:15:27.468Z,7.00
2023-02-15T20:17:54.369Z,7.00
2023-02-15T20:20:21.667Z,6.90
2023-02-15T20:22:49.448Z,6.90
2023-02-15T20:25:17.424Z,6.90
2023-02-15T20:27:44.279Z,6.90
2023-02-15T20:30:15.368Z,6.90
2023-02-15T20:32:42.045Z,6.80
2023-02-15T20:35:12.658Z,6.80
2023-02-15T20:37:39.397Z,6.70
2023-02-15T20:40:13.349Z,6.70
2023-02-15T20:42:42.413Z,6.60
2023-02-15T20:45:35.555Z,6.50
2023-02-15T20:48:02.241Z,6.60
2023-02-15T20:50:30.306Z,6.50
2023-02-15T20:52:57.828Z,6.40
2023-02-15T20:55:29.237Z,6.40
2023-02-15T20:57:56.549Z,6.40
2023-02-15T21:00:24.891Z,6.40
2023-02-15T21:02:55.980Z,6.40
2023-02-15T21:05:24.062Z,6.40
2023-02-15T21:07:51.680Z,6.40
2023-02-15T21:10:26.005Z,6.40
2023-02-15T21:12:53.052Z,6.40
2023-02-15T21:15:28.146Z,6.40
2023-02-15T21:17:55.035Z,6.40
2023-02-15T21:20:22.237Z,6.40
2023-02-15T21:22:49.020Z,6.30
2023-02-15T21:27:46.068Z,6.30
2023-02-15T21:30:16.410Z,6.20
2023-02-15T21:32:43.062Z,6.20
2023-02-15T21:35:11.331Z,6.20
2023-02-15T21:37:39.778Z,6.20
2023-02-15T21:40:15.667Z,6.20
2023-02-15T21:43:00.924Z,6.20
2023-02-15T21:45:45.936Z,6.20
2023-02-15T21:48:12.761Z,6.10
2023-02-15T21:50:57.977Z,6.10
2023-02-15T21:53:25.905Z,6.10
2023-02-15T21:55:54.585Z,6.10
2023-02-15T21:58:22.194Z,6.10
2023-02-15T22:00:49.125Z,6.10
2023-02-15T22:03:15.998Z,6.10
2023-02-15T22:05:42.622Z,6.10
2023-02-15T22:08:11.426Z,6.00
2023-02-15T22:10:37.966Z,5.90
2023-02-15T22:13:04.555Z,5.80
2023-02-15T22:15:35.442Z,5.80
2023-02-15T22:18:02.474Z,5.80
2023-02-15T22:20:29.166Z,5.80
2023-02-15T22:22:55.669Z,5.70
2023-02-15T22:28:16.486Z,5.50
2023-02-15T22:30:44.726Z,5.40
2023-02-15T22:33:22.917Z,5.20
2023-02-15T22:35:49.708Z,5.10
2023-02-15T22:38:16.310Z,5.00
2023-02-15T22:40:43.035Z,5.00
2023-02-15T22:43:17.349Z,4.90
2023-02-15T22:45:43.895Z,4.90
2023-02-15T22:48:10.994Z,4.90
2023-02-15T22:50:37.944Z,4.90
2023-02-15T22:53:04.608Z,5.00
2023-02-15T22:55:33.308Z,5.00
2023-02-15T22:58:00.150Z,4.90
2023-02-15T23:00:28.483Z,4.80
2023-02-15T23:02:55.433Z,4.80
2023-02-15T23:05:23.403Z,4.80
2023-02-15T23:07:50.412Z,4.70
2023-02-15T23:10:23.776Z,4.70
2023-02-15T23:13:13.450Z,4.70
2023-02-15T23:15:40.734Z,4.60
2023-02-15T23:18:18.447Z,4.50
2023-02-15T23:20:46.584Z,4.50
2023-02-15T23:23:14.607Z,4.50
2023-02-15T23:25:41.541Z,4.50
2023-02-15T23:28:17.741Z,4.60
2023-02-15T23:30:44.555Z,4.70
2023-02-15T23:33:11.704Z,4.70
2023-02-15T23:35:38.595Z,4.70
2023-02-15T23:38:16.619Z,4.60
2023-02-15T23:41:02.237Z,4.60
2023-02-15T23:43:28.932Z,4.60
2023-02-15T23:45:55.485Z,4.60
2023-02-15T23:48:29.493Z,4.60
2023-02-15T23:50:56.214Z,4.50
2023-02-15T23:53:22.736Z,4.40
2023-02-15T23:55:49.370Z,4.30
2023-02-15T23:58:24.718Z,4.20
